Time;durP1;ratioP1;P1;durP2;ratioP2;P2;SDS_P1;SDS_P2;PMS_P1;PMS_P2;Temp;Humidity;BMP_temperature;BMP_pressure;BME280_temperature;BME280_humidity;BME280_pressure;Samples;Min_cycle;Max_cycle;Signal;HPM_P1;HPM_P2
2023/10/10 00:02:20;;;;;;;19.27;9.90;;;;;;;13.27;100.00;101172.13;5076463;28;20024;-75
2023/10/10 00:04:54;;;;;;;17.63;9.23;;;;;;;13.28;100.00;101162.16;5059433;28;20401;-75
2023/10/10 00:07:20;;;;;;;16.83;8.88;;;;;;;13.32;100.00;101160.78;5059804;28;20091;-75
2023/10/10 00:09:46;;;;;;;22.58;9.35;;;;;;;13.34;100.00;101137.13;5075394;28;20471;-75
2023/10/10 00:12:25;;;;;;;16.00;9.43;;;;;;;13.34;100.00;101139.81;5058870;28;20379;-75
2023/10/10 00:14:52;;;;;;;16.90;8.55;;;;;;;13.38;100.00;101147.34;5029359;28;20041;-75
2023/10/10 00:17:20;;;;;;;14.55;8.32;;;;;;;13.43;100.00;101144.09;5075022;28;20439;-75
2023/10/10 00:19:54;;;;;;;13.90;7.35;;;;;;;13.43;100.00;101136.00;5058686;28;20490;-75
2023/10/10 00:22:30;;;;;;;33.67;8.68;;;;;;;13.45;100.00;101143.94;5076111;28;20391;-75
2023/10/10 00:24:55;;;;;;;15.43;8.18;;;;;;;13.45;100.00;101139.38;5060052;28;20037;-75
2023/10/10 00:27:23;;;;;;;22.80;8.65;;;;;;;13.47;100.00;101134.63;5074589;28;20043;-75
2023/10/10 00:29:49;;;;;;;15.75;7.53;;;;;;;13.48;100.00;101127.34;5074494;28;20485;-75
2023/10/10 00:32:18;;;;;;;14.82;8.23;;;;;;;13.47;100.00;101117.56;5058521;28;20036;-75
2023/10/10 00:34:47;;;;;;;18.00;7.20;;;;;;;13.46;100.00;101115.88;5058567;28;20039;-75
2023/10/10 00:37:21;;;;;;;16.45;7.88;;;;;;;13.45;100.00;101123.16;5042915;28;20032;-75
2023/10/10 00:40:00;;;;;;;15.95;7.13;;;;;;;13.53;100.00;101125.75;5074886;28;20033;-75
2023/10/10 00:42:41;;;;;;;19.83;8.30;;;;;;;13.59;100.00;101121.47;5059999;28;20032;-76
2023/10/10 00:45:13;;;;;;;15.02;6.45;;;;;;;13.58;100.00;101112.53;5059915;28;20157;-75
2023/10/10 00:47:59;;;;;;;12.55;6.97;;;;;;;13.56;100.00;101127.25;5074249;28;20029;-76
2023/10/10 00:50:26;;;;;;;13.13;6.25;;;;;;;13.56;100.00;101125.38;5074781;28;20036;-75
2023/10/10 00:53:00;;;;;;;9.30;5.57;;;;;;;13.62;100.00;101145.41;5074746;28;20139;-75
2023/10/10 00:55:26;;;;;;;15.70;6.22;;;;;;;13.64;100.00;101140.66;5058876;28;20075;-75
2023/10/10 00:58:08;;;;;;;11.52;5.53;;;;;;;13.62;100.00;101150.81;5060357;28;20128;-75
2023/10/10 01:00:35;;;;;;;11.73;5.47;;;;;;;13.62;100.00;101145.41;5057739;28;20040;-75
2023/10/10 01:03:07;;;;;;;12.80;5.90;;;;;;;13.56;100.00;101141.59;5074627;28;20032;-75
2023/10/10 01:05:40;;;;;;;14.93;5.72;;;;;;;13.52;100.00;101140.31;5042276;28;20123;-76
2023/10/10 01:08:07;;;;;;;10.43;6.13;;;;;;;13.49;100.00;101134.41;5058504;28;20040;-76
2023/10/10 01:10:42;;;;;;;9.52;5.75;;;;;;;13.47;100.00;101128.34;5041388;28;20033;-75
2023/10/10 01:13:10;;;;;;;10.90;6.53;;;;;;;13.40;100.00;101130.97;5059172;28;20028;-75
2023/10/10 01:15:38;;;;;;;15.10;6.07;;;;;;;13.39;100.00;101129.31;5075187;28;20126;-75
2023/10/10 01:18:13;;;;;;;13.48;6.38;;;;;;;13.35;100.00;101118.00;5073823;28;20039;-76
2023/10/10 01:20:45;;;;;;;12.88;6.10;;;;;;;13.31;100.00;101116.72;5057531;28;20043;-75
2023/10/10 01:23:14;;;;;;;10.87;5.27;;;;;;;13.28;100.00;101116.25;5041859;28;20064;-75
2023/10/10 01:28:33;;;;;;;11.32;5.97;;;;;;;13.13;100.00;101108.94;5057424;28;20042;-75
2023/10/10 01:31:03;;;;;;;11.48;5.57;;;;;;;13.08;100.00;101105.13;5044241;28;20037;-76
2023/10/10 01:33:36;;;;;;;11.23;5.25;;;;;;;13.02;100.00;101103.13;5074100;28;20033;-75
2023/10/10 01:36:19;;;;;;;12.73;5.82;;;;;;;12.97;100.00;101104.53;5058291;28;20024;-76
2023/10/10 01:38:59;;;;;;;9.23;5.60;;;;;;;12.93;100.00;101087.00;5072858;28;20032;-75
2023/10/10 01:41:33;;;;;;;10.90;5.55;;;;;;;12.87;100.00;101085.06;5074876;28;20486;-75
2023/10/10 01:44:10;;;;;;;10.82;5.20;;;;;;;12.83;100.00;101074.81;5073607;28;20101;-75
2023/10/10 01:46:36;;;;;;;10.43;5.07;;;;;;;12.81;100.00;101060.66;5073768;28;20463;-75
2023/10/10 01:49:02;;;;;;;8.70;4.85;;;;;;;12.76;100.00;101069.31;5056832;28;20033;-75
2023/10/10 01:51:35;;;;;;;10.18;4.82;;;;;;;12.73;100.00;101065.13;5024056;28;20033;-75
2023/10/10 01:54:12;;;;;;;10.68;5.50;;;;;;;12.68;100.00;101067.53;5041112;28;20383;-76
2023/10/10 01:56:47;;;;;;;9.80;5.47;;;;;;;12.66;100.00;101049.84;5057256;28;20499;-75
2023/10/10 01:59:14;;;;;;;12.75;5.90;;;;;;;12.67;100.00;101052.34;5056838;28;20041;-75
2023/10/10 02:01:41;;;;;;;13.20;5.72;;;;;;;12.67;100.00;101057.75;5023596;28;20429;-75
2023/10/10 02:04:07;;;;;;;15.23;5.90;;;;;;;12.66;100.00;101045.28;5056997;28;20041;-75
2023/10/10 02:06:39;;;;;;;10.52;5.20;;;;;;;12.63;100.00;101042.94;5040208;28;20064;-75
2023/10/10 02:09:12;;;;;;;11.93;5.53;;;;;;;12.60;100.00;101045.19;5072815;28;20490;-75
2023/10/10 02:11:39;;;;;;;8.77;5.05;;;;;;;12.56;100.00;101047.38;5041046;28;20482;-76
2023/10/10 02:14:11;;;;;;;13.38;5.72;;;;;;;12.55;100.00;101040.31;5039987;28;20116;-76
2023/10/10 02:16:40;;;;;;;12.80;5.88;;;;;;;12.57;100.00;101054.47;5040820;28;20037;-76
2023/10/10 02:19:15;;;;;;;11.65;5.25;;;;;;;12.56;100.00;101047.38;5056421;28;20037;-75
2023/10/10 02:21:48;;;;;;;12.82;6.00;;;;;;;12.58;100.00;101056.16;5057505;28;20032;-75
2023/10/10 02:27:04;;;;;;;16.17;5.45;;;;;;;12.61;100.00;101028.81;5057807;28;20036;-75
2023/10/10 02:32:06;;;;;;;11.48;5.80;;;;;;;12.62;100.00;101032.34;5039769;28;20032;-76
2023/10/10 02:34:34;;;;;;;15.55;6.28;;;;;;;12.63;100.00;101028.63;5057450;28;20451;-76
2023/10/10 02:39:56;;;;;;;18.67;10.88;;;;;;;12.64;100.00;101012.25;5072462;28;20479;-75
2023/10/10 02:42:23;;;;;;;13.98;5.85;;;;;;;12.70;100.00;101021.47;5057992;28;20035;-76
2023/10/10 02:44:57;;;;;;;14.85;6.13;;;;;;;12.77;100.00;101014.31;5072774;28;20064;-75
2023/10/10 02:47:32;;;;;;;13.77;6.05;;;;;;;12.78;100.00;101005.22;5039731;28;20479;-75
2023/10/10 02:50:12;;;;;;;12.75;6.32;;;;;;;12.77;100.00;100996.25;5072173;28;20037;-76
2023/10/10 02:52:45;;;;;;;15.07;7.43;;;;;;;12.76;100.00;100994.59;5040879;28;20476;-76
2023/10/10 02:55:33;;;;;;;14.80;7.90;;;;;;;12.76;100.00;100994.59;5072578;28;20028;-76
2023/10/10 02:57:59;;;;;;;12.23;6.70;;;;;;;12.76;100.00;100994.59;5058889;28;20069;-76
2023/10/10 03:03:24;;;;;;;14.82;5.65;;;;;;;12.68;100.00;100991.16;5072171;28;20463;-75
2023/10/10 03:05:54;;;;;;;11.85;5.07;;;;;;;12.68;100.00;100996.53;5061747;28;20093;-76
2023/10/10 03:08:34;;;;;;;13.35;5.10;;;;;;;12.63;100.00;101002.47;5072263;28;20160;-75
2023/10/10 03:11:01;;;;;;;16.05;6.03;;;;;;;12.67;100.00;100987.59;5056990;28;20036;-76
2023/10/10 03:13:32;;;;;;;12.32;5.78;;;;;;;12.66;100.00;100987.78;5055722;28;20082;-76
2023/10/10 03:16:29;;;;;;;14.75;6.25;;;;;;;12.67;100.00;100990.28;5039087;28;20036;-76
2023/10/10 03:29:49;;;;;;;12.25;5.93;;;;;;;12.75;100.00;100971.34;5023593;28;20046;-75
2023/10/10 03:32:32;;;;;;;14.25;7.22;;;;;;;12.84;100.00;100973.94;5073097;28;20029;-76
2023/10/10 03:35:05;;;;;;;13.00;6.55;;;;;;;12.84;100.00;100974.78;5072339;28;20032;-75
2023/10/10 03:37:41;;;;;;;;;;;;;;;12.88;100.00;100980.63;5056900;28;20029;-75
2023/10/10 03:40:21;;;;;;;12.80;6.57;;;;;;;12.88;100.00;100978.78;5071879;28;19915;-76
2023/10/10 05:25:26;;;;;;;12.27;6.05;;;;;;;13.08;100.00;100868.38;5074076;28;20036;-75
2023/10/10 05:27:52;;;;;;;12.85;5.80;;;;;;;13.07;100.00;100869.41;5058084;28;20123;-76
2023/10/10 05:30:24;;;;;;;11.02;5.60;;;;;;;13.03;100.00;100857.31;5057413;28;20039;-77
2023/10/10 05:33:00;;;;;;;10.25;5.70;;;;;;;12.99;100.00;100858.72;5057446;28;20168;-75
2023/10/10 05:35:27;;;;;;;8.18;5.30;;;;;;;12.98;100.00;100857.03;5058311;28;20036;-75
2023/10/10 05:37:54;;;;;;;11.45;4.95;;;;;;;12.96;100.00;100851.81;5057325;28;20025;-76
2023/10/10 05:40:20;;;;;;;11.30;5.35;;;;;;;12.99;100.00;100853.31;5040400;28;20029;-75
2023/10/10 05:42:46;;;;;;;10.70;5.38;;;;;;;12.98;100.00;100846.25;5073702;28;20114;-75
2023/10/10 05:45:13;;;;;;;9.45;5.13;;;;;;;12.97;100.00;100845.41;5073479;28;20028;-75
2023/10/10 05:47:42;;;;;;;13.07;5.28;;;;;;;12.94;100.00;100844.97;5057343;28;20025;-75
2023/10/10 05:50:10;;;;;;;12.90;4.65;;;;;;;12.91;100.00;100848.03;5056939;28;20043;-75
2023/10/10 05:52:40;;;;;;;7.82;4.72;;;;;;;12.88;100.00;100843.84;5057147;28;20037;-76
2023/10/10 05:55:07;;;;;;;9.43;4.60;;;;;;;12.86;100.00;100834.25;5056145;28;20079;-77
2023/10/10 05:57:36;;;;;;;8.07;5.13;;;;;;;12.83;100.00;100823.84;5073470;28;20119;-77
2023/10/10 06:00:11;;;;;;;10.50;4.70;;;;;;;12.83;100.00;100823.84;5057089;28;20467;-77
2023/10/10 06:02:37;;;;;;;9.82;4.72;;;;;;;12.80;100.00;100827.75;5057507;28;20480;-77
2023/10/10 06:05:05;;;;;;;9.38;4.95;;;;;;;12.81;100.00;100820.50;5056209;28;20461;-76
2023/10/10 06:07:31;;;;;;;10.00;4.80;;;;;;;12.83;100.00;100815.75;5056675;28;20033;-77
2023/10/10 06:09:58;;;;;;;13.18;5.80;;;;;;;12.84;100.00;100812.88;5039986;28;20099;-77
2023/10/10 06:12:26;;;;;;;12.30;6.15;;;;;;;12.87;100.00;100807.09;5056796;28;20123;-77
2023/10/10 06:14:54;;;;;;;10.95;4.82;;;;;;;12.91;100.00;100804.84;5056609;28;20090;-76
2023/10/10 06:17:21;;;;;;;13.35;6.88;;;;;;;12.95;100.00;100798.88;5040031;28;20363;-77
2023/10/10 06:19:47;;;;;;;10.07;5.65;;;;;;;12.96;100.00;100797.84;5073020;28;20032;-77
2023/10/10 06:22:15;;;;;;;8.75;5.50;;;;;;;13.00;100.00;100801.03;5056020;28;20383;-77
2023/10/10 06:24:41;;;;;;;12.68;5.88;;;;;;;13.00;100.00;100798.31;5071907;28;20473;-76
2023/10/10 06:27:09;;;;;;;10.43;5.50;;;;;;;13.01;100.00;100797.28;5072941;28;20077;-76
2023/10/10 06:29:40;;;;;;;11.65;5.30;;;;;;;13.04;100.00;100798.75;5073566;28;20028;-77
2023/10/10 06:32:15;;;;;;;11.82;5.97;;;;;;;13.03;100.00;100799.81;5056307;28;20035;-77
2023/10/10 06:34:48;;;;;;;10.43;5.40;;;;;;;13.01;100.00;100793.75;5057524;28;20111;-77
2023/10/10 06:37:13;;;;;;;10.00;6.20;;;;;;;13.02;100.00;100798.97;5040542;28;20029;-76
2023/10/10 06:40:00;;;;;;;8.63;5.00;;;;;;;13.02;100.00;100800.81;5054372;28;20384;-76
2023/10/10 06:42:27;;;;;;;11.57;5.47;;;;;;;13.03;100.00;100799.81;5070635;28;20070;-77
2023/10/10 06:44:54;;;;;;;10.27;5.25;;;;;;;13.05;100.00;100808.56;5072764;28;20043;-77
2023/10/10 06:47:21;;;;;;;9.35;5.60;;;;;;;13.05;100.00;100803.97;5039370;28;20036;-77
2023/10/10 06:49:56;;;;;;;9.77;5.60;;;;;;;13.06;100.00;100808.34;5055693;28;20460;-77
2023/10/10 06:52:23;;;;;;;9.15;5.22;;;;;;;13.04;100.00;100821.19;5072752;28;20486;-77
2023/10/10 06:54:55;;;;;;;13.02;5.25;;;;;;;13.01;100.00;100820.75;5073750;28;20078;-76
2023/10/10 06:57:45;;;;;;;12.15;5.20;;;;;;;12.97;100.00;100812.19;5056770;28;20040;-76
2023/10/10 07:00:28;;;;;;;11.90;5.88;;;;;;;12.91;100.00;100813.81;5058645;28;20032;-77
2023/10/10 07:02:55;;;;;;;10.45;5.00;;;;;;;12.88;100.00;100807.94;5040933;28;20074;-77
2023/10/10 07:05:26;;;;;;;8.82;5.35;;;;;;;12.88;100.00;100805.22;5055459;28;20456;-77
2023/10/10 07:07:59;;;;;;;11.07;5.43;;;;;;;12.90;100.00;100797.78;5072291;28;20024;-77
2023/10/10 07:10:32;;;;;;;9.50;5.45;;;;;;;12.87;100.00;100796.31;5072077;28;20127;-76
2023/10/10 07:13:02;;;;;;;;;;;;;;;12.95;100.00;100795.34;5040382;28;20044;-76
2023/10/10 07:15:35;;;;;;;9.50;4.72;;;;;;;12.99;100.00;100804.72;5072486;28;19909;-77
2023/10/10 07:18:22;;;;;;;10.07;5.43;;;;;;;13.00;100.00;100792.09;5055559;28;20467;-76
2023/10/10 07:21:04;;;;;;;11.73;5.25;;;;;;;12.99;100.00;100783.13;5072207;28;20035;-76
2023/10/10 07:23:37;;;;;;;12.38;6.25;;;;;;;13.05;100.00;100795.88;5057080;28;20467;-77
2023/10/10 07:26:23;;;;;;;11.85;5.10;;;;;;;13.07;100.00;100791.13;5039325;28;20497;-76
2023/10/10 07:28:52;;;;;;;11.73;5.80;;;;;;;13.11;100.00;100796.97;5057359;28;20070;-77
2023/10/10 07:31:23;;;;;;;8.25;5.28;;;;;;;13.13;100.00;100798.47;5039495;28;20051;-77
2023/10/10 07:33:56;;;;;;;11.95;5.40;;;;;;;13.16;100.00;100795.38;5057611;28;20555;-76
2023/10/10 07:36:27;;;;;;;9.15;5.63;;;;;;;13.18;100.00;100792.50;5056732;28;20032;-76
2023/10/10 07:41:38;;;;;;;13.38;5.03;;;;;;;13.19;100.00;100800.38;5076201;28;20104;-77
2023/10/10 07:44:05;;;;;;;8.75;4.90;;;;;;;13.18;100.00;100803.28;5075865;28;20044;-77
2023/10/10 07:46:35;;;;;;;9.00;5.10;;;;;;;13.18;100.00;100797.91;5075468;28;20024;-78
2023/10/10 07:49:02;;;;;;;7.63;4.78;;;;;;;13.18;100.00;100800.59;5059689;28;20024;-77
2023/10/10 07:51:28;;;;;;;9.63;5.13;;;;;;;13.19;100.00;100805.78;5042825;28;20036;-78
2023/10/10 07:54:12;;;;;;;11.20;5.00;;;;;;;13.25;100.00;100800.66;5059248;28;20028;-76
2023/10/10 07:56:45;;;;;;;10.80;5.15;;;;;;;13.34;100.00;100802.25;5043916;28;20138;-78
2023/10/10 07:59:24;;;;;;;11.90;4.97;;;;;;;13.49;100.00;100794.03;5060796;28;20029;-76
2023/10/10 08:01:54;;;;;;;7.10;4.47;;;;;;;13.69;100.00;100805.03;5042939;28;20032;-76
2023/10/10 08:04:21;;;;;;;11.10;5.50;;;;;;;13.86;100.00;100795.59;5059354;28;20062;-76
2023/10/10 08:06:53;;;;;;;8.07;4.50;;;;;;;14.01;100.00;100799.03;5058897;28;20036;-77
2023/10/10 08:09:24;;;;;;;8.55;4.85;;;;;;;14.14;100.00;100797.47;5058938;28;20035;-76
2023/10/10 08:11:55;;;;;;;8.77;5.13;;;;;;;14.28;100.00;100799.22;5075108;28;20039;-76
2023/10/10 08:14:30;;;;;;;9.05;4.90;;;;;;;14.41;100.00;100793.88;5075168;28;20040;-79
2023/10/10 08:16:59;;;;;;;13.82;5.32;;;;;;;14.59;100.00;100796.09;5075209;28;20078;-76
2023/10/10 08:19:33;;;;;;;8.63;4.60;;;;;;;14.75;100.00;100794.91;5042477;28;20402;-76
2023/10/10 08:21:59;;;;;;;14.32;5.57;;;;;;;14.84;100.00;100793.66;5060004;28;20131;-76
2023/10/10 08:24:24;;;;;;;8.40;5.50;;;;;;;14.91;100.00;100804.53;5074929;28;20471;-76
2023/10/10 08:26:51;;;;;;;8.95;5.18;;;;;;;14.94;100.00;100804.94;5041879;28;20040;-80
2023/10/10 08:29:19;;;;;;;8.15;4.90;;;;;;;15.02;100.00;100813.94;5057418;28;20090;-76
2023/10/10 08:31:44;;;;;;;11.23;4.80;;;;;;;15.06;100.00;100807.09;5056646;28;20032;-77
2023/10/10 08:34:10;;;;;;;10.82;5.10;;;;;;;15.08;100.00;100800.44;5074966;28;20020;-75
2023/10/10 08:36:37;;;;;;;9.35;4.80;;;;;;;15.18;100.00;100806.25;5055741;28;20521;-76
2023/10/10 08:41:41;;;;;;;7.43;4.50;;;;;;;15.48;100.00;100805.06;5073728;28;20036;-76
2023/10/10 08:44:22;;;;;;;12.13;4.85;;;;;;;15.62;100.00;100795.91;5073275;28;20452;-76
2023/10/10 08:46:48;;;;;;;8.60;4.30;;;;;;;15.72;100.00;100792.84;5042858;28;20475;-76
2023/10/10 08:49:14;;;;;;;6.47;4.43;;;;;;;15.77;100.00;100785.72;5073840;28;20021;-77
2023/10/10 08:51:44;;;;;;;10.02;4.57;;;;;;;15.82;100.00;100785.94;5058051;28;20108;-76
2023/10/10 08:54:12;;;;;;;11.32;4.53;;;;;;;15.88;100.00;100780.69;5074765;28;20030;-76
2023/10/10 08:56:59;;;;;;;12.23;4.32;;;;;;;15.90;100.00;100778.63;5074601;28;20029;-78
2023/10/10 08:59:26;;;;;;;9.93;4.78;;;;;;;15.96;100.00;100785.94;5059535;28;20458;-78
2023/10/10 09:01:51;;;;;;;9.48;4.25;;;;;;;16.00;100.00;100784.44;5074104;28;20056;-78
2023/10/10 09:04:19;;;;;;;11.38;5.07;;;;;;;16.08;100.00;100781.50;5075439;28;20067;-78
2023/10/10 09:09:39;;;;;;;15.43;5.20;;;;;;;16.37;100.00;100785.63;5073631;28;20044;-76
2023/10/10 09:12:13;;;;;;;9.90;4.50;;;;;;;16.58;100.00;100781.78;5072201;28;20438;-75
2023/10/10 09:14:49;;;;;;;9.65;5.18;;;;;;;16.82;100.00;100763.13;5040260;28;20036;-76
2023/10/10 09:17:29;;;;;;;11.27;4.78;;;;;;;17.16;100.00;100770.03;5059530;28;20048;-76
2023/10/10 09:19:57;;;;;;;9.98;4.57;;;;;;;17.46;100.00;100766.69;5040524;28;20028;-77
2023/10/10 09:22:42;;;;;;;10.18;4.57;;;;;;;18.13;100.00;100770.50;5056993;28;20032;-76
2023/10/10 09:25:26;;;;;;;8.93;4.50;;;;;;;18.15;100.00;100781.16;5041608;28;20037;-75
2023/10/10 09:27:59;;;;;;;10.82;5.10;;;;;;;17.57;100.00;100765.94;5057461;28;20034;-76
2023/10/10 09:30:40;;;;;;;7.88;4.35;;;;;;;17.30;100.00;100768.03;5073869;28;20039;-76
2023/10/10 09:35:58;;;;;;;13.48;5.65;;;;;;;17.49;100.00;100753.50;5074047;28;20479;-75
2023/10/10 09:38:35;;;;;;;7.80;4.88;;;;;;;17.65;100.00;100751.25;5041731;28;20123;-77
2023/10/10 09:41:14;;;;;;;8.00;5.10;;;;;;;17.48;100.00;100745.53;5057466;28;20032;-76
2023/10/10 09:49:45;;;;;;;9.75;4.82;;;;;;;17.19;100.00;100755.19;5072707;28;20084;-76
2023/10/10 10:03:41;;;;;;;10.77;5.65;;;;;;;17.85;100.00;100745.66;5073326;28;20044;-77
2023/10/10 10:06:34;;;;;;;13.82;6.22;;;;;;;17.85;100.00;100745.66;5059691;28;20047;-78
2023/10/10 10:09:17;;;;;;;10.52;5.50;;;;;;;17.85;100.00;100748.41;5056601;28;20032;-78
2023/10/10 10:12:23;;;;;;;9.23;5.50;;;;;;;17.90;100.00;100749.38;5040423;28;20075;-76
2023/10/10 10:15:12;;;;;;;11.05;6.30;;;;;;;17.95;100.00;100732.41;5072977;28;20033;-78
2023/10/10 10:17:53;;;;;;;10.57;5.63;;;;;;;18.07;100.00;100729.75;5071739;28;20531;-79
2023/10/10 10:20:48;;;;;;;11.75;5.68;;;;;;;18.26;100.00;100730.56;5040437;28;20059;-77
2023/10/10 10:23:18;;;;;;;10.00;5.30;;;;;;;18.23;100.00;100727.28;5041708;28;20081;-78
2023/10/10 10:26:04;;;;;;;10.57;6.00;;;;;;;18.20;100.00;100732.31;5069393;28;20024;-79
2023/10/10 10:28:34;;;;;;;8.95;5.72;;;;;;;18.39;100.00;100742.16;5040921;28;20028;-79
2023/10/10 10:31:16;;;;;;;10.95;5.40;;;;;;;18.54;100.00;100736.31;5056305;28;20063;-79
2023/10/10 10:34:05;;;;;;;11.10;6.35;;;;;;;18.67;100.00;100735.31;5056524;28;20041;-80
2023/10/10 10:36:54;;;;;;;11.48;6.10;;;;;;;18.73;100.00;100728.94;5072495;28;20028;-79
2023/10/10 10:39:34;;;;;;;11.40;5.55;;;;;;;18.89;100.00;100727.47;5055600;28;20051;-79
2023/10/10 10:42:02;;;;;;;11.18;5.88;;;;;;;18.95;100.00;100712.13;5072519;28;20032;-79
2023/10/10 10:44:58;;;;;;;12.40;5.70;;;;;;;19.01;100.00;100717.47;5038977;28;20115;-79
2023/10/10 10:47:40;;;;;;;10.10;5.30;;;;;;;18.66;100.00;100720.03;5041038;28;20028;-79
2023/10/10 10:50:17;;;;;;;12.40;6.45;;;;;;;18.29;100.00;100725.53;5072038;28;20036;-80
2023/10/10 10:52:55;;;;;;;12.40;5.88;;;;;;;18.00;100.00;100724.38;5056633;28;20046;-79
2023/10/10 10:55:27;;;;;;;11.32;5.95;;;;;;;17.91;100.00;100723.84;5055937;28;20024;-79
2023/10/10 10:58:05;;;;;;;10.98;6.32;;;;;;;17.88;100.00;100707.13;5071838;28;20028;-79
2023/10/10 11:03:38;;;;;;;9.98;5.85;;;;;;;17.80;100.00;100705.53;5071997;28;20479;-78
2023/10/10 11:06:14;;;;;;;11.68;5.45;;;;;;;17.85;100.00;100710.31;5039115;28;20110;-78
2023/10/10 11:16:46;;;;;;;12.40;6.07;;;;;;;18.09;100.00;100698.53;5072135;28;20047;-77
2023/10/10 11:22:01;;;;;;;14.32;6.32;;;;;;;18.07;100.00;100697.09;5072684;28;20037;-79
2023/10/10 11:24:34;;;;;;;10.15;5.57;;;;;;;18.13;100.00;100704.38;5039143;28;20028;-77
2023/10/10 11:29:44;;;;;;;12.13;6.90;;;;;;;18.17;100.00;100697.41;5056004;28;20115;-78
2023/10/10 11:32:12;;;;;;;14.07;6.18;;;;;;;18.06;100.00;100703.59;5071879;28;20032;-78
2023/10/10 11:34:44;;;;;;;8.70;5.20;;;;;;;17.99;100.00;100699.06;5022127;28;20103;-80
2023/10/10 11:37:23;;;;;;;12.65;6.28;;;;;;;18.06;100.00;100692.72;5055166;28;20426;-77
2023/10/10 11:44:24;;;;;;;12.68;6.20;;;;;;;17.95;100.00;100676.09;5116418;27;20399;-76
2023/10/10 11:46:56;;;;;;;9.30;5.95;;;;;;;18.26;100.00;100676.13;5082198;28;20574;-76
2023/10/10 11:49:21;;;;;;;14.25;6.47;;;;;;;18.60;100.00;100677.38;5070561;28;20410;-76
2023/10/10 11:51:47;;;;;;;10.10;6.63;;;;;;;18.95;100.00;100666.63;5079802;28;20034;-77
2023/10/10 11:54:13;;;;;;;13.95;6.32;;;;;;;19.05;100.00;100669.63;5063077;28;20062;-77
2023/10/10 11:56:38;;;;;;;13.52;6.53;;;;;;;19.01;100.00;100668.41;5091282;28;20035;-76
2023/10/10 11:59:10;;;;;;;13.00;6.57;;;;;;;19.02;100.00;100666.50;5092575;28;20533;-76
2023/10/10 12:02:07;;;;;;;10.05;6.38;;;;;;;18.84;100.00;100657.38;5077325;28;20024;-76
2023/10/10 12:04:36;;;;;;;10.15;6.53;;;;;;;18.60;100.00;100669.19;5107858;28;20390;-77
2023/10/10 12:07:04;;;;;;;10.57;5.43;;;;;;;18.35;100.00;100669.34;5072200;28;20517;-76
2023/10/10 12:09:33;;;;;;;10.85;6.00;;;;;;;18.28;100.00;100669.41;5077560;28;20036;-76
2023/10/10 12:12:04;;;;;;;9.70;6.32;;;;;;;18.32;100.00;100664.34;5052174;28;20024;-79
2023/10/10 12:14:31;;;;;;;11.60;6.00;;;;;;;18.16;100.00;100663.91;5115536;28;20466;-77
2023/10/10 12:16:58;;;;;;;15.80;6.82;;;;;;;18.34;100.00;100651.34;5090445;28;20028;-78
2023/10/10 12:19:25;;;;;;;9.57;7.00;;;;;;;18.48;100.00;100649.28;5065859;28;20115;-76
2023/10/10 12:21:51;;;;;;;10.40;5.72;;;;;;;18.51;100.00;100649.63;5101754;28;20154;-76
2023/10/10 12:24:17;;;;;;;15.10;6.93;;;;;;;18.63;100.00;100652.41;5053832;28;20047;-76
2023/10/10 12:26:43;;;;;;;13.25;5.50;;;;;;;18.58;100.00;100634.03;5055596;28;20031;-77
2023/10/10 12:29:30;;;;;;;8.02;5.07;;;;;;;18.59;100.00;100632.97;5051818;28;20058;-75
2023/10/10 12:31:56;;;;;;;11.27;5.93;;;;;;;18.53;100.00;100636.63;5085579;28;20035;-78
2023/10/10 12:34:32;;;;;;;10.68;5.40;;;;;;;18.42;100.00;100629.25;5086721;28;20035;-78
2023/10/10 12:37:04;;;;;;;11.13;4.70;;;;;;;18.37;100.00;100629.13;5084295;28;20055;-76
2023/10/10 12:39:37;;;;;;;8.70;4.95;;;;;;;18.37;100.00;100627.22;5087180;28;20032;-76
2023/10/10 12:42:03;;;;;;;;;;;;;;;18.39;100.00;100622.38;5066280;28;20036;-75
2023/10/10 12:44:29;;;;;;;7.10;4.50;;;;;;;18.45;100.00;100613.28;5073877;28;19961;-76
2023/10/10 12:46:58;;;;;;;8.43;4.90;;;;;;;18.48;100.00;100613.88;5053933;28;20043;-76
2023/10/10 12:49:32;;;;;;;7.20;4.10;;;;;;;18.52;100.00;100613.16;5082839;28;20446;-76
2023/10/10 12:51:57;;;;;;;7.93;4.07;;;;;;;18.63;100.00;100608.84;5073241;28;20036;-76
2023/10/10 12:54:34;;;;;;;7.43;3.78;;;;;;;18.59;100.00;100615.81;5050302;28;20940;-76
2023/10/10 12:57:06;;;;;;;4.20;3.10;;;;;;;18.59;100.00;100613.09;5058877;28;20036;-77
2023/10/10 12:59:34;;;;;;;5.30;3.60;;;;;;;18.58;100.00;100614.97;5045388;28;20040;-77
2023/10/10 13:02:03;;;;;;;4.70;3.55;;;;;;;18.57;100.00;100607.84;5075187;28;20032;-75
2023/10/10 13:04:29;;;;;;;8.43;3.50;;;;;;;18.61;100.00;100608.25;5075372;28;20073;-78
2023/10/10 13:07:02;;;;;;;4.93;3.58;;;;;;;18.61;100.00;100602.78;5074469;28;20035;-76
2023/10/10 13:09:28;;;;;;;6.13;3.00;;;;;;;18.61;100.00;100611.78;5099359;28;20028;-77
2023/10/10 13:11:56;;;;;;;4.97;2.85;;;;;;;18.66;100.00;100601.03;5055917;28;20454;-76
2023/10/10 13:14:29;;;;;;;6.57;3.72;;;;;;;18.69;100.00;100602.47;5062275;28;20126;-77
2023/10/10 13:19:43;;;;;;;4.05;2.67;;;;;;;18.61;100.00;100603.63;5060739;28;20486;-78
2023/10/10 13:22:20;;;;;;;3.88;2.65;;;;;;;18.53;100.00;100619.47;5058859;28;20028;-77
2023/10/10 13:24:47;;;;;;;6.20;3.20;;;;;;;18.58;100.00;100603.25;5093824;28;20359;-77
2023/10/10 13:27:13;;;;;;;5.43;3.40;;;;;;;18.68;100.00;100603.50;5075599;28;20107;-77
2023/10/10 13:29:38;;;;;;;6.18;3.05;;;;;;;18.70;100.00;100606.00;5058407;28;20139;-78
2023/10/10 13:32:06;;;;;;;4.03;3.20;;;;;;;18.61;100.00;100600.06;5059020;28;20127;-78
2023/10/10 13:34:32;;;;;;;4.93;4.00;;;;;;;18.63;100.00;100603.41;5042505;28;20058;-76
2023/10/10 13:36:58;;;;;;;5.93;3.83;;;;;;;18.50;100.00;100607.16;5088751;28;20409;-75
2023/10/10 13:39:40;;;;;;;4.55;3.03;;;;;;;18.31;100.00;100611.81;5080209;28;20039;-77
2023/10/10 13:42:07;;;;;;;5.43;4.10;;;;;;;18.09;100.00;100607.91;5075081;28;20077;-76
2023/10/10 13:44:33;;;;;;;5.22;2.88;;;;;;;18.02;100.00;100605.28;5113632;28;20429;-77
2023/10/10 13:47:00;;;;;;;6.10;4.38;;;;;;;17.91;100.00;100614.19;5065308;28;20031;-77
2023/10/10 13:49:25;;;;;;;5.13;4.05;;;;;;;17.79;100.00;100605.97;5044343;28;20063;-76
2023/10/10 13:51:54;;;;;;;7.85;4.50;;;;;;;17.66;100.00;100606.94;5093971;28;20067;-76
2023/10/10 13:54:20;;;;;;;7.13;4.45;;;;;;;17.55;100.00;100622.09;5064374;28;20036;-76
2023/10/10 13:56:46;;;;;;;6.43;4.32;;;;;;;17.46;100.00;100606.31;5063098;28;20089;-77
2023/10/10 13:59:11;;;;;;;6.10;4.57;;;;;;;17.35;100.00;100613.31;5060477;28;20043;-76
2023/10/10 14:01:39;;;;;;;8.52;4.20;;;;;;;17.25;100.00;100613.00;5097129;28;20071;-76
2023/10/10 14:04:46;;;;;;;7.57;4.38;;;;;;;17.22;100.00;100605.28;5056023;28;20047;-76
2023/10/10 14:07:00;;;;;;;7.68;4.15;;;;;;;17.38;100.00;100614.75;5081577;28;20402;-75
2023/10/10 14:09:31;;;;;;;7.88;4.00;;;;;;;17.65;100.00;100610.72;5095019;28;20034;-77
2023/10/10 14:12:01;;;;;;;6.00;4.22;;;;;;;17.75;100.00;100600.13;5095137;28;20077;-76
2023/10/10 14:14:29;;;;;;;6.50;4.38;;;;;;;17.80;100.00;100596.75;5067485;28;20665;-76
2023/10/10 14:16:55;;;;;;;4.75;3.25;;;;;;;17.91;100.00;100612.31;5064314;28;20033;-76
2023/10/10 14:19:23;;;;;;;5.63;3.58;;;;;;;17.97;100.00;100608.69;5082797;28;20052;-76
2023/10/10 14:21:52;;;;;;;4.35;3.40;;;;;;;17.95;100.00;100613.53;5076312;28;20097;-76
2023/10/10 14:24:18;;;;;;;5.75;3.60;;;;;;;17.91;100.00;100612.31;5043763;28;20035;-74
2023/10/10 14:26:44;;;;;;;9.20;3.50;;;;;;;17.94;100.00;100611.88;5043490;28;20047;-74
2023/10/10 14:29:25;;;;;;;5.20;3.70;;;;;;;17.95;100.00;100610.81;5092792;28;20062;-74
2023/10/10 14:31:58;;;;;;;10.00;4.38;;;;;;;17.96;100.00;100606.19;5074600;28;20071;-75
2023/10/10 14:34:24;;;;;;;6.05;3.13;;;;;;;17.98;100.00;100604.91;5074506;28;20039;-74